Time;durP1;ratioP1;P1;durP2;ratioP2;P2;SDS_P1;SDS_P2;PMS_P1;PMS_P2;Temp;Humidity;BMP_temperature;BMP_pressure;BME280_temperature;BME280_humidity;BME280_pressure;Samples;Min_cycle;Max_cycle;Signal;HPM_P1;HPM_P2
2024/04/03 00:02:04;;;;;;;5.97;2.75;;;;;;;10.16;88.05;100259.22;4980287;28;20145;-80
2024/04/03 00:04:31;;;;;;;6.57;3.17;;;;;;;10.13;88.46;100255.91;4980372;28;20435;-78
2024/04/03 00:06:58;;;;;;;5.63;3.00;;;;;;;10.11;88.27;100257.81;4980117;28;20049;-79
2024/04/03 00:09:25;;;;;;;10.40;3.30;;;;;;;10.19;88.69;100256.31;4980065;28;20533;-78
2024/04/03 00:11:51;;;;;;;11.48;3.60;;;;;;;10.18;88.24;100257.25;4980241;28;20135;-77
2024/04/03 00:14:17;;;;;;;7.57;3.00;;;;;;;10.12;88.73;100254.19;4980171;28;20090;-78
2024/04/03 00:16:45;;;;;;;7.22;2.90;;;;;;;10.11;89.57;100263.13;4979176;28;20106;-78
2024/04/03 00:19:12;;;;;;;4.45;2.90;;;;;;;10.15;89.17;100252.28;4979872;28;20046;-79
2024/04/03 00:21:41;;;;;;;10.15;3.28;;;;;;;10.07;89.63;100255.59;4965400;28;20062;-79
2024/04/03 00:24:10;;;;;;;12.27;3.53;;;;;;;10.06;89.53;100254.78;4980500;28;20078;-78
2024/04/03 00:26:35;;;;;;;9.50;3.58;;;;;;;10.09;89.59;100262.44;4980713;28;20142;-79
2024/04/03 00:29:02;;;;;;;6.90;3.33;;;;;;;10.16;89.40;100264.50;4980334;28;20449;-77
2024/04/03 00:31:28;;;;;;;8.43;3.75;;;;;;;10.17;89.59;100259.06;4979961;28;20089;-80
2024/04/03 00:33:54;;;;;;;7.28;3.15;;;;;;;10.15;90.11;100258.38;4971610;28;20074;-81
2024/04/03 00:36:20;;;;;;;10.77;3.22;;;;;;;10.16;90.50;100254.75;4980461;28;20106;-81
2024/04/03 00:38:46;;;;;;;5.40;2.97;;;;;;;10.09;90.66;100249.22;4980624;28;20078;-81
2024/04/03 00:41:13;;;;;;;11.63;3.80;;;;;;;10.10;91.58;100248.22;4973490;28;20145;-77
2024/04/03 00:43:40;;;;;;;9.05;3.60;;;;;;;10.08;91.87;100244.03;4977874;28;20403;-78
2024/04/03 00:46:06;;;;;;;9.32;3.35;;;;;;;10.10;91.11;100250.88;4980250;28;20079;-80
2024/04/03 00:48:33;;;;;;;6.78;3.25;;;;;;;10.07;91.34;100245.84;4972014;28;20057;-80
2024/04/03 00:51:00;;;;;;;5.25;3.28;;;;;;;10.03;91.35;100238.34;5055698;23;20100;-78
2024/04/03 00:53:29;;;;;;;11.13;4.45;;;;;;;10.01;91.39;100235.03;4997058;28;20056;-78
2024/04/03 00:55:54;;;;;;;5.25;3.35;;;;;;;10.06;91.39;100233.63;4989763;28;20093;-77
2024/04/03 00:58:23;;;;;;;9.65;3.53;;;;;;;10.16;90.86;100230.13;4998626;28;20146;-79
2024/04/03 01:00:48;;;;;;;5.43;3.25;;;;;;;10.06;91.53;100238.91;4998407;28;20062;-78
2024/04/03 01:03:15;;;;;;;10.40;3.80;;;;;;;10.05;91.59;100234.59;4999060;28;20050;-78
2024/04/03 01:05:40;;;;;;;6.78;3.35;;;;;;;10.02;92.11;100234.88;4999656;28;20077;-78
2024/04/03 01:08:08;;;;;;;8.63;3.55;;;;;;;9.98;92.27;100233.47;4998792;28;20057;-79
2024/04/03 01:10:34;;;;;;;10.95;3.40;;;;;;;10.05;92.51;100225.84;4998860;28;20110;-79
2024/04/03 01:13:02;;;;;;;7.45;3.30;;;;;;;9.98;92.24;100230.84;4995323;28;20050;-81
2024/04/03 01:15:29;;;;;;;11.50;3.40;;;;;;;9.95;92.52;100219.72;4994887;28;20084;-79
2024/04/03 01:17:56;;;;;;;7.85;3.20;;;;;;;9.97;92.19;100221.25;4997649;28;20072;-78
2024/04/03 01:20:23;;;;;;;9.10;3.33;;;;;;;9.97;91.86;100217.78;4998170;28;20153;-78
2024/04/03 01:22:50;;;;;;;6.55;3.20;;;;;;;9.93;92.66;100211.94;4998915;28;20124;-77
2024/04/03 01:25:17;;;;;;;7.35;3.47;;;;;;;9.89;92.72;100210.53;4999370;28;20051;-79
2024/04/03 01:27:44;;;;;;;7.53;3.03;;;;;;;9.94;92.73;100207.47;4997142;28;20054;-79
2024/04/03 01:30:10;;;;;;;8.68;3.97;;;;;;;9.86;93.31;100205.53;4997302;28;20484;-79
2024/04/03 01:32:38;;;;;;;14.52;4.50;;;;;;;9.81;93.70;100203.28;4997464;28;20061;-79
2024/04/03 01:35:04;;;;;;;9.65;3.50;;;;;;;9.85;94.07;100199.41;4996638;28;20082;-78
2024/04/03 01:37:31;;;;;;;8.38;3.72;;;;;;;9.88;93.56;100200.94;4995611;28;20060;-77
2024/04/03 01:39:57;;;;;;;7.30;3.40;;;;;;;9.75;93.78;100188.00;4996473;28;20077;-78
2024/04/03 01:42:25;;;;;;;11.23;3.45;;;;;;;9.70;94.72;100184.97;4995520;28;20070;-79
2024/04/03 01:44:50;;;;;;;6.30;3.28;;;;;;;9.67;94.02;100173.81;4997145;28;20050;-78
2024/04/03 01:47:17;;;;;;;7.53;3.58;;;;;;;9.70;94.68;100174.38;4996763;28;20398;-77
2024/04/03 01:49:43;;;;;;;11.07;3.30;;;;;;;9.67;94.25;100174.66;4996286;28;20150;-77
2024/04/03 01:52:09;;;;;;;7.88;3.65;;;;;;;9.62;94.45;100161.88;4995912;28;20086;-79
2024/04/03 01:54:35;;;;;;;10.30;3.50;;;;;;;9.53;95.45;100154.78;4996306;28;20144;-78
2024/04/03 01:57:01;;;;;;;9.30;3.25;;;;;;;9.43;95.44;100143.38;4996705;28;20535;-77
2024/04/03 01:59:29;;;;;;;10.75;3.33;;;;;;;9.48;95.41;100146.44;4996761;28;20114;-78
2024/04/03 02:01:55;;;;;;;9.52;3.78;;;;;;;9.57;94.53;100153.53;4988858;28;20427;-78
2024/04/03 02:04:21;;;;;;;7.72;3.80;;;;;;;9.51;94.67;100137.38;4995652;28;20132;-78
2024/04/03 02:06:47;;;;;;;8.85;3.72;;;;;;;9.47;94.76;100130.75;4995814;28;20146;-78
2024/04/03 02:09:13;;;;;;;11.57;3.97;;;;;;;9.43;95.39;100134.63;4995379;28;20138;-79
2024/04/03 02:11:40;;;;;;;12.05;3.95;;;;;;;9.40;95.51;100127.81;4987958;28;20082;-78
2024/04/03 02:14:09;;;;;;;6.40;3.53;;;;;;;9.39;95.06;100118.22;4996348;28;20078;-82
2024/04/03 02:16:37;;;;;;;10.70;3.95;;;;;;;9.39;95.29;100123.50;4995998;28;20057;-78
2024/04/03 02:19:02;;;;;;;11.50;4.20;;;;;;;9.34;95.67;100115.16;4995184;28;20136;-78
2024/04/03 02:21:29;;;;;;;11.20;3.80;;;;;;;9.33;95.85;100118.75;4995727;28;20462;-78
2024/04/03 02:23:54;;;;;;;7.90;4.00;;;;;;;9.30;96.01;100119.88;4995343;28;20082;-80
2024/04/03 02:26:21;;;;;;;11.50;4.35;;;;;;;9.30;95.89;100124.34;4995144;28;20496;-78
2024/04/03 02:28:47;;;;;;;10.73;4.43;;;;;;;9.22;96.88;100121.56;4994062;28;20174;-78
2024/04/03 02:31:13;;;;;;;10.13;4.20;;;;;;;9.23;96.71;100124.03;4995737;28;20062;-79
2024/04/03 02:33:40;;;;;;;12.93;4.45;;;;;;;9.26;96.25;100117.66;4996465;28;20089;-78
2024/04/03 02:36:10;;;;;;;8.88;4.30;;;;;;;9.23;96.88;100121.41;4995928;28;20054;-78
2024/04/03 02:38:36;;;;;;;11.30;4.40;;;;;;;9.20;96.47;100113.78;4994793;28;20153;-77
2024/04/03 02:41:03;;;;;;;12.60;4.53;;;;;;;9.19;96.76;100113.91;4997886;28;20058;-79
2024/04/03 02:43:29;;;;;;;12.93;4.13;;;;;;;9.09;96.78;100104.16;4997757;28;20064;-79
2024/04/03 02:45:56;;;;;;;9.85;4.30;;;;;;;9.16;97.33;100111.56;4997588;28;20047;-79
2024/04/03 02:48:22;;;;;;;11.65;4.22;;;;;;;9.14;97.25;100102.91;4995961;28;20050;-78
2024/04/03 02:50:50;;;;;;;9.45;4.30;;;;;;;9.16;97.00;100093.91;4958570;28;1135755;-79
2024/04/03 02:53:16;;;;;;;10.98;4.57;;;;;;;9.11;97.08;100089.03;4998867;28;20114;-79
2024/04/03 02:55:42;;;;;;;14.60;5.22;;;;;;;9.13;97.66;100088.06;4998248;28;20077;-79
2024/04/03 02:58:08;;;;;;;10.93;4.80;;;;;;;9.08;98.04;100083.19;4999036;28;20061;-79
2024/04/03 03:00:35;;;;;;;11.73;5.07;;;;;;;9.08;98.03;100084.03;4999949;28;20110;-77
2024/04/03 03:03:00;;;;;;;12.23;5.63;;;;;;;9.07;98.05;100074.44;4999636;28;20133;-79
2024/04/03 03:05:27;;;;;;;9.80;5.00;;;;;;;9.10;97.91;100070.69;5000041;28;20092;-77
2024/04/03 03:07:54;;;;;;;14.10;5.40;;;;;;;9.07;98.12;100071.81;5000955;28;20089;-77
2024/04/03 03:10:21;;;;;;;12.07;5.55;;;;;;;9.08;97.65;100073.47;5002195;28;20046;-78
2024/04/03 03:12:46;;;;;;;12.18;6.00;;;;;;;9.08;97.91;100072.63;5002968;28;20082;-78
2024/04/03 03:15:13;;;;;;;9.77;5.60;;;;;;;9.11;97.64;100067.09;5004461;28;20065;-78
2024/04/03 03:17:38;;;;;;;11.23;6.60;;;;;;;9.07;97.66;100061.25;5010099;28;20082;-77
2024/04/03 03:20:06;;;;;;;16.42;6.95;;;;;;;9.11;97.64;100061.81;5009427;28;20050;-78
2024/04/03 03:22:32;;;;;;;12.88;6.70;;;;;;;9.14;97.53;100055.41;5010066;28;20050;-78
2024/04/03 03:24:59;;;;;;;14.25;6.72;;;;;;;9.17;97.25;100060.41;5008156;28;20061;-77
2024/04/03 03:27:25;;;;;;;11.27;6.63;;;;;;;9.19;97.31;100058.47;5001186;28;20050;-80
2024/04/03 03:29:52;;;;;;;9.95;6.43;;;;;;;9.18;97.54;100046.25;4997365;28;20078;-78
2024/04/03 03:32:17;;;;;;;16.80;6.72;;;;;;;9.14;98.10;100045.69;4998985;28;20046;-79
2024/04/03 03:34:44;;;;;;;13.68;6.65;;;;;;;9.13;97.80;100036.09;4998775;28;20552;-79
2024/04/03 03:37:10;;;;;;;14.30;6.38;;;;;;;9.10;98.27;100039.84;5007320;28;20039;-80
2024/04/03 03:39:37;;;;;;;13.80;6.70;;;;;;;9.12;98.25;100034.44;5001631;28;20145;-79
2024/04/03 03:42:05;;;;;;;12.90;6.47;;;;;;;9.16;98.10;100035.00;5003883;28;20470;-79
2024/04/03 03:44:32;;;;;;;14.07;6.28;;;;;;;9.10;98.26;100031.91;4997871;28;20074;-80
2024/04/03 03:46:57;;;;;;;11.40;5.97;;;;;;;9.14;98.73;100029.00;4997185;28;20069;-80
2024/04/03 03:54:59;;;;;;;10.98;6.18;;;;;;;9.11;98.90;100028.31;5001542;28;20117;-79
2024/04/03 03:57:28;;;;;;;12.43;5.47;;;;;;;9.12;98.56;100021.25;5002011;28;20081;-80
2024/04/03 03:59:55;;;;;;;12.23;5.70;;;;;;;9.08;98.54;100020.69;5001078;28;20497;-79
2024/04/03 04:02:21;;;;;;;13.82;5.80;;;;;;;9.16;98.32;100021.78;5001172;28;20065;-79
2024/04/03 04:04:49;;;;;;;15.40;5.60;;;;;;;9.16;98.59;100017.34;4999867;28;20129;-77
2024/04/03 04:07:14;;;;;;;11.10;5.57;;;;;;;9.14;99.49;100015.81;4997601;28;20050;-79
2024/04/03 04:09:41;;;;;;;15.55;5.40;;;;;;;9.16;99.41;100016.53;4997900;28;20100;-78
2024/04/03 04:12:08;;;;;;;11.73;5.43;;;;;;;9.21;98.75;100006.38;4990546;28;20065;-79
2024/04/03 04:14:35;;;;;;;9.52;5.20;;;;;;;9.15;98.88;100005.09;4998327;28;20090;-77
2024/04/03 04:17:05;;;;;;;10.10;5.78;;;;;;;9.19;98.97;100003.00;4997670;28;20133;-78
2024/04/03 04:19:30;;;;;;;11.52;5.63;;;;;;;9.10;99.12;99997.59;4997245;28;20125;-78
2024/04/03 04:21:57;;;;;;;10.77;5.47;;;;;;;9.07;99.48;99997.91;4998222;28;20141;-79
2024/04/03 04:24:22;;;;;;;10.98;5.32;;;;;;;9.05;99.34;99999.84;4998296;28;20472;-78
2024/04/03 04:26:49;;;;;;;12.13;5.75;;;;;;;9.01;99.63;99989.69;4997975;28;20058;-77
2024/04/03 04:29:15;;;;;;;12.25;6.15;;;;;;;9.05;99.56;99989.28;4996683;28;20046;-78
2024/04/03 04:31:44;;;;;;;14.77;6.07;;;;;;;8.98;99.35;99980.28;4997263;28;20054;-78
2024/04/03 04:34:10;;;;;;;16.05;6.78;;;;;;;8.94;99.51;99978.88;4997304;28;20488;-78
2024/04/03 04:36:36;;;;;;;13.35;6.25;;;;;;;8.92;99.75;99966.78;4997336;28;20082;-78
2024/04/03 04:39:03;;;;;;;12.70;7.05;;;;;;;8.96;98.86;99976.91;4997923;28;20141;-79
2024/04/03 04:41:30;;;;;;;15.15;6.93;;;;;;;8.95;99.33;99974.44;4997139;28;20406;-78
2024/04/03 04:43:55;;;;;;;13.95;6.50;;;;;;;8.94;99.28;99981.53;4990057;28;20137;-78
2024/04/03 04:46:22;;;;;;;16.67;6.60;;;;;;;8.91;99.34;99979.16;4998632;28;20058;-80
2024/04/03 04:48:49;;;;;;;17.52;6.95;;;;;;;8.90;99.09;99982.78;5000391;28;20479;-79
2024/04/03 04:51:19;;;;;;;12.18;5.78;;;;;;;8.92;99.32;99985.25;4999781;28;20046;-78
2024/04/03 04:53:44;;;;;;;13.52;6.22;;;;;;;8.91;98.92;99988.88;4998408;28;20101;-79
2024/04/03 04:56:11;;;;;;;13.68;6.95;;;;;;;8.94;99.22;99985.97;4998125;28;20478;-78
2024/04/03 04:58:37;;;;;;;15.27;6.55;;;;;;;8.88;99.13;99989.97;5000258;28;20142;-80
2024/04/03 05:01:05;;;;;;;13.40;6.90;;;;;;;8.88;99.28;99979.41;4999645;28;20142;-79
2024/04/03 05:03:31;;;;;;;12.90;7.25;;;;;;;8.96;98.93;99979.56;4998500;28;20480;-79
2024/04/03 05:06:00;;;;;;;14.73;6.57;;;;;;;8.91;98.84;99981.78;4999249;28;20090;-79
2024/04/03 05:08:26;;;;;;;14.70;6.78;;;;;;;8.92;99.23;99982.63;4999286;28;20129;-79
2024/04/03 05:10:56;;;;;;;12.63;6.75;;;;;;;8.95;99.09;99982.34;4999490;28;20050;-81
2024/04/03 05:13:22;;;;;;;13.48;6.43;;;;;;;8.98;99.56;99992.63;4999798;28;20057;-79
2024/04/03 05:15:49;;;;;;;11.95;6.18;;;;;;;9.06;98.77;99982.19;4990099;28;20051;-79
2024/04/03 05:18:15;;;;;;;12.00;5.70;;;;;;;9.07;98.47;99982.06;4994573;28;20140;-79
2024/04/03 05:20:41;;;;;;;13.50;6.82;;;;;;;9.00;98.51;99990.69;4999545;28;20421;-78
2024/04/03 05:23:09;;;;;;;15.63;6.68;;;;;;;9.01;98.69;99987.88;4999929;28;20051;-78
2024/04/03 05:25:36;;;;;;;10.88;6.55;;;;;;;9.11;98.48;99982.63;5000826;28;20074;-77
2024/04/03 05:28:02;;;;;;;12.52;6.88;;;;;;;9.08;98.33;99978.44;5000749;28;20054;-78
2024/04/03 05:30:30;;;;;;;12.43;6.70;;;;;;;9.13;97.96;99982.47;4998973;28;20448;-80
2024/04/03 05:32:55;;;;;;;12.25;6.38;;;;;;;9.11;98.25;99975.53;4999485;28;20082;-79
2024/04/03 05:35:22;;;;;;;12.20;6.20;;;;;;;9.08;98.22;99973.16;5001312;28;20065;-78
2024/04/03 05:37:47;;;;;;;15.75;6.80;;;;;;;9.10;98.31;99979.13;5000193;28;20057;-79
2024/04/03 05:40:18;;;;;;;16.08;6.90;;;;;;;9.15;98.32;99972.59;5000012;28;20129;-79
2024/04/03 05:42:43;;;;;;;18.35;7.20;;;;;;;9.17;97.70;99970.66;5000875;28;20089;-79
2024/04/03 05:45:10;;;;;;;15.25;6.82;;;;;;;9.17;98.28;99979.41;5000600;28;20057;-79
2024/04/03 05:47:36;;;;;;;10.25;6.25;;;;;;;9.10;98.40;99975.66;5000665;28;20057;-79
2024/04/03 05:50:05;;;;;;;15.65;6.80;;;;;;;9.18;98.65;99972.31;5000036;28;20062;-80
2024/04/03 05:52:31;;;;;;;12.80;6.30;;;;;;;9.20;98.28;99973.03;4998317;28;20081;-79
2024/04/03 05:54:58;;;;;;;12.13;6.63;;;;;;;9.22;98.46;99976.34;4998271;28;20050;-79
2024/04/03 05:57:25;;;;;;;12.20;6.43;;;;;;;9.29;98.29;99975.66;5001087;28;20058;-79
2024/04/03 05:59:52;;;;;;;11.82;5.95;;;;;;;9.22;98.17;99963.16;5002608;28;20517;-80
2024/04/03 06:02:18;;;;;;;12.43;6.70;;;;;;;9.30;98.72;99973.84;5001901;28;20081;-78
2024/04/03 06:04:44;;;;;;;15.43;6.45;;;;;;;9.33;97.86;99970.88;4995550;28;20077;-78
2024/04/03 06:07:10;;;;;;;11.60;6.07;;;;;;;9.24;97.92;99972.59;4996521;28;20092;-78
2024/04/03 06:09:36;;;;;;;11.75;6.15;;;;;;;9.25;98.33;99968.97;4988454;28;20506;-79
2024/04/03 06:12:03;;;;;;;9.80;6.28;;;;;;;9.26;98.01;99973.28;4995902;28;20133;-80
2024/04/03 06:14:32;;;;;;;18.60;6.57;;;;;;;9.31;97.93;99970.22;4997062;28;20106;-79
2024/04/03 06:16:58;;;;;;;10.00;6.43;;;;;;;9.32;98.77;99977.97;4997257;28;20109;-79
2024/04/03 06:19:24;;;;;;;16.85;6.63;;;;;;;9.38;98.12;99973.97;4988476;28;20070;-78
2024/04/03 06:21:50;;;;;;;11.25;6.53;;;;;;;9.39;97.89;99978.25;4996876;28;20151;-78
2024/04/03 06:24:20;;;;;;;12.60;7.38;;;;;;;9.47;97.61;99977.56;4997219;28;20102;-79
2024/04/03 06:26:45;;;;;;;16.92;6.68;;;;;;;9.45;97.48;99964.47;4997565;28;20493;-79
2024/04/03 06:29:12;;;;;;;12.40;5.75;;;;;;;9.47;97.34;99962.53;4999461;28;20046;-80
2024/04/03 06:31:39;;;;;;;13.82;6.63;;;;;;;9.50;97.05;99956.13;4997589;28;20167;-78
2024/04/03 06:34:06;;;;;;;15.48;6.57;;;;;;;9.61;97.21;99969.16;4996698;28;20050;-78
2024/04/03 06:36:31;;;;;;;13.77;7.20;;;;;;;9.54;96.75;99960.97;4996497;28;20390;-78
2024/04/03 06:38:58;;;;;;;14.25;6.80;;;;;;;9.63;96.79;99961.91;4997450;28;20054;-78
2024/04/03 06:41:25;;;;;;;18.77;6.38;;;;;;;9.59;96.50;99961.38;4997727;28;20051;-79
2024/04/03 06:43:52;;;;;;;16.08;6.97;;;;;;;9.58;96.58;99949.13;4997713;28;20504;-79
2024/04/03 06:46:18;;;;;;;12.88;6.45;;;;;;;9.62;96.70;99955.81;4997014;28;20050;-79
2024/04/03 06:48:45;;;;;;;14.50;6.50;;;;;;;9.65;96.22;99959.16;4996911;28;20097;-79
2024/04/03 06:51:12;;;;;;;14.50;6.57;;;;;;;9.70;95.99;99947.16;5031789;23;20488;-80
2024/04/03 06:53:38;;;;;;;12.90;5.90;;;;;;;9.84;95.04;99946.69;5018528;28;20453;-81
2024/04/03 06:56:08;;;;;;;10.15;5.90;;;;;;;9.87;94.13;99937.63;5018977;28;20046;-85
2024/04/03 06:58:38;;;;;;;14.15;6.15;;;;;;;9.76;94.05;99935.16;5018512;28;20129;-79
2024/04/03 07:01:06;;;;;;;13.68;5.47;;;;;;;9.85;94.04;99939.56;5016675;28;20249;-80
2024/04/03 07:03:32;;;;;;;10.48;5.78;;;;;;;9.73;94.76;99940.72;5017520;28;20500;-81
2024/04/03 07:06:00;;;;;;;9.63;5.40;;;;;;;9.72;94.45;99936.44;5013239;28;20062;-79
2024/04/03 07:08:26;;;;;;;16.38;5.50;;;;;;;9.66;94.63;99942.31;4997275;28;20524;-79
2024/04/03 07:10:53;;;;;;;14.93;6.25;;;;;;;9.75;94.60;99939.63;4999400;28;20050;-81
2024/04/03 07:13:20;;;;;;;10.25;5.15;;;;;;;9.63;94.63;99936.31;5000320;28;20079;-80
2024/04/03 07:15:48;;;;;;;13.10;5.20;;;;;;;9.70;94.11;99925.19;5014412;28;20080;-78
2024/04/03 07:18:14;;;;;;;11.07;5.65;;;;;;;9.67;94.30;99928.13;5016917;28;20057;-81
2024/04/03 07:20:42;;;;;;;12.35;5.07;;;;;;;9.71;94.39;99926.84;5016912;28;20042;-79
2024/04/03 07:23:09;;;;;;;11.75;5.35;;;;;;;9.84;93.68;99928.19;5016784;28;20046;-79
2024/04/03 07:25:37;;;;;;;10.48;5.03;;;;;;;9.84;93.40;99927.34;5017564;28;20492;-80
2024/04/03 07:28:09;;;;;;;15.75;4.80;;;;;;;9.85;92.61;99918.44;5014656;28;20397;-79
2024/04/03 07:30:35;;;;;;;10.38;5.57;;;;;;;9.85;93.02;99927.19;5007339;28;20109;-80
2024/04/03 07:33:02;;;;;;;10.55;4.95;;;;;;;9.89;92.32;99922.44;5014393;28;20089;-79
2024/04/03 07:35:29;;;;;;;11.27;5.93;;;;;;;10.02;93.56;99927.38;4998607;28;20509;-81
2024/04/03 07:37:55;;;;;;;11.60;5.20;;;;;;;10.03;91.78;99921.94;5015640;28;20060;-78
2024/04/03 07:40:23;;;;;;;10.32;5.00;;;;;;;10.06;92.10;99924.31;5005130;28;20046;-79
2024/04/03 07:42:50;;;;;;;11.05;4.82;;;;;;;10.07;91.94;99923.31;5007603;28;20084;-80
2024/04/03 07:45:15;;;;;;;8.52;4.90;;;;;;;10.13;91.70;99928.03;5014042;28;20208;-78
2024/04/03 07:47:42;;;;;;;10.73;4.85;;;;;;;10.21;92.69;99929.09;5011396;28;20105;-79
2024/04/03 07:50:11;;;;;;;8.65;4.90;;;;;;;10.28;92.22;99932.84;5019378;28;20046;-81
2024/04/03 07:52:38;;;;;;;11.90;4.75;;;;;;;10.17;91.76;99939.13;5010951;28;20089;-80
2024/04/03 07:55:07;;;;;;;9.48;4.55;;;;;;;10.17;92.18;99938.28;5015334;28;20046;-80
2024/04/03 07:57:36;;;;;;;9.75;4.60;;;;;;;10.18;92.06;99945.22;5008570;28;20196;-81
2024/04/03 08:00:03;;;;;;;13.70;5.32;;;;;;;10.21;92.07;99935.19;5019919;28;20116;-80
2024/04/03 08:02:30;;;;;;;9.20;4.47;;;;;;;10.26;91.47;99938.25;5019718;28;20420;-80
2024/04/03 08:04:55;;;;;;;9.95;4.63;;;;;;;10.34;90.41;99933.06;5015798;28;20105;-79
2024/04/03 08:07:22;;;;;;;9.55;4.03;;;;;;;10.30;90.88;99930.84;5014592;28;20054;-80
2024/04/03 08:09:48;;;;;;;7.97;4.07;;;;;;;10.51;90.48;99931.41;5020320;28;20072;-80
2024/04/03 08:12:17;;;;;;;12.02;4.32;;;;;;;10.71;90.14;99931.25;5013304;28;20054;-80
2024/04/03 08:14:47;;;;;;;10.25;4.85;;;;;;;10.73;88.73;99924.00;5018231;28;20110;-80
2024/04/03 08:17:13;;;;;;;7.30;3.95;;;;;;;11.05;87.68;99921.59;5013625;28;20133;-79
2024/04/03 08:19:39;;;;;;;8.15;4.28;;;;;;;11.08;87.71;99925.75;5015932;28;20054;-81
2024/04/03 08:22:06;;;;;;;9.48;4.47;;;;;;;11.22;86.86;99927.84;5011185;28;20120;-78
2024/04/03 08:24:33;;;;;;;7.68;4.00;;;;;;;11.57;84.39;99924.25;5010519;28;20070;-82
2024/04/03 08:27:03;;;;;;;8.57;3.90;;;;;;;11.75;86.76;99920.69;5019178;28;20049;-80
2024/04/03 08:29:31;;;;;;;9.80;3.60;;;;;;;11.83;84.12;99913.63;5021125;28;20049;-81
2024/04/03 08:32:00;;;;;;;9.20;3.53;;;;;;;11.84;85.21;99911.81;5010894;28;20058;-78
2024/04/03 08:34:25;;;;;;;9.05;3.97;;;;;;;11.81;82.88;99920.03;5003075;28;20078;-79
2024/04/03 08:36:52;;;;;;;7.22;3.35;;;;;;;11.97;83.68;99914.84;5018027;28;20054;-80
2024/04/03 08:39:18;;;;;;;8.63;3.47;;;;;;;11.99;85.59;99918.16;5017611;28;20060;-79
2024/04/03 08:41:45;;;;;;;8.40;3.67;;;;;;;12.15;82.07;99914.72;5010389;28;20140;-79
2024/04/03 08:44:12;;;;;;;9.25;3.60;;;;;;;11.98;82.64;99916.50;5020240;28;20096;-81
2024/04/03 08:46:39;;;;;;;7.70;3.50;;;;;;;11.96;82.94;99917.63;5020254;28;20102;-79
2024/04/03 08:49:11;;;;;;;7.97;3.58;;;;;;;12.01;83.71;99910.88;5019432;28;20050;-79
2024/04/03 08:51:39;;;;;;;7.97;3.97;;;;;;;11.88;84.61;99916.63;5018262;28;20085;-79
2024/04/03 08:54:09;;;;;;;5.38;3.30;;;;;;;11.88;85.98;99916.63;5019884;28;20054;-79
2024/04/03 08:56:35;;;;;;;6.15;3.65;;;;;;;11.83;85.88;99907.47;5019301;28;20053;-79
2024/04/03 08:59:04;;;;;;;8.60;4.13;;;;;;;11.70;85.35;99907.06;5019469;28;20077;-81
2024/04/03 09:01:31;;;;;;;6.93;4.05;;;;;;;11.73;84.11;99912.03;5017198;28;20092;-80
2024/04/03 09:03:58;;;;;;;7.97;4.18;;;;;;;11.60;85.64;99904.53;5001864;28;20050;-81
2024/04/03 09:06:25;;;;;;;6.45;3.97;;;;;;;11.63;84.91;99912.16;5016652;28;20137;-80
2024/04/03 09:08:52;;;;;;;5.28;4.00;;;;;;;11.61;85.14;99915.00;5014635;28;20149;-80
2024/04/03 09:11:23;;;;;;;5.85;3.72;;;;;;;11.71;85.10;99909.56;5003236;28;20500;-79
2024/04/03 09:13:54;;;;;;;8.07;3.55;;;;;;;11.60;84.13;99913.31;5019386;28;20054;-80
2024/04/03 09:16:21;;;;;;;8.93;4.57;;;;;;;11.67;84.09;99910.03;5003986;28;20512;-80
2024/04/03 09:18:48;;;;;;;8.40;3.90;;;;;;;11.61;83.07;99909.69;5018268;28;20058;-82
2024/04/03 09:21:18;;;;;;;9.55;3.47;;;;;;;11.77;84.84;99910.75;5020169;28;20042;-81
2024/04/03 09:23:47;;;;;;;7.15;3.97;;;;;;;11.82;83.91;99911.09;5019797;28;20053;-80
2024/04/03 09:26:13;;;;;;;16.02;11.13;;;;;;;11.71;84.05;99912.22;5019815;28;20104;-82
2024/04/03 09:28:39;;;;;;;5.32;3.45;;;;;;;11.62;83.06;99911.34;5019457;28;20046;-82
2024/04/03 09:31:05;;;;;;;6.75;3.70;;;;;;;11.62;84.46;99911.34;5015134;28;20050;-80
2024/04/03 09:33:34;;;;;;;5.40;3.20;;;;;;;11.62;84.47;99907.88;5010510;28;20050;-81
2024/04/03 09:36:05;;;;;;;4.30;3.05;;;;;;;11.69;84.35;99905.41;5021170;28;20467;-80
2024/04/03 09:38:33;;;;;;;4.10;2.83;;;;;;;11.75;83.92;99908.25;5020406;28;20096;-81
2024/04/03 09:41:04;;;;;;;6.05;2.95;;;;;;;11.93;83.78;99907.38;5020297;28;20069;-80
2024/04/03 09:43:34;;;;;;;3.42;2.90;;;;;;;11.99;85.09;99906.72;5019469;28;20046;-79
2024/04/03 09:46:06;;;;;;;5.30;2.95;;;;;;;12.08;84.42;99916.34;5013711;28;20111;-81
2024/04/03 09:48:36;;;;;;;3.55;2.20;;;;;;;12.04;82.10;99899.94;5019149;28;20060;-82
2024/04/03 09:51:03;;;;;;;4.72;2.25;;;;;;;11.93;83.29;99902.06;5011889;28;20461;-81
2024/04/03 09:53:30;;;;;;;3.20;2.30;;;;;;;12.04;82.74;99907.06;5019929;28;20081;-81
2024/04/03 09:55:56;;;;;;;2.17;1.98;;;;;;;12.08;82.37;99909.22;5010772;28;20540;-80
2024/04/03 09:58:27;;;;;;;3.53;1.95;;;;;;;12.13;81.22;99898.94;5019443;28;20048;-79
2024/04/03 10:00:54;;;;;;;2.22;1.60;;;;;;;12.33;82.64;99898.69;5003838;28;20073;-83
2024/04/03 10:03:22;;;;;;;3.30;2.20;;;;;;;12.27;80.39;99894.84;5019514;28;20050;-79
2024/04/03 10:05:48;;;;;;;2.72;1.80;;;;;;;12.34;81.59;99895.84;5020952;28;20057;-79
2024/04/03 10:08:18;;;;;;;2.42;1.77;;;;;;;12.52;80.26;99887.75;5023825;28;20116;-79
2024/04/03 10:10:44;;;;;;;2.72;1.85;;;;;;;12.74;81.02;99885.44;5019183;28;20046;-81
2024/04/03 10:13:13;;;;;;;3.20;1.70;;;;;;;12.88;80.44;99887.41;5018260;28;20057;-80
2024/04/03 10:15:40;;;;;;;3.65;1.95;;;;;;;12.82;78.85;99893.41;5018655;28;20054;-79
2024/04/03 10:18:07;;;;;;;2.20;1.60;;;;;;;12.88;76.06;99890.91;5023402;28;20084;-79
2024/04/03 10:20:37;;;;;;;3.85;1.65;;;;;;;12.84;78.64;99883.44;5026223;28;20065;-83
2024/04/03 10:23:07;;;;;;;3.08;1.83;;;;;;;12.76;78.36;99886.91;5027278;28;20054;-82
2024/04/03 10:25:32;;;;;;;4.60;1.83;;;;;;;12.82;77.50;99880.13;5020779;28;20045;-82
2024/04/03 10:27:59;;;;;;;1.92;1.70;;;;;;;12.87;77.08;99889.25;5019237;28;20500;-79
2024/04/03 10:30:25;;;;;;;3.55;1.88;;;;;;;13.07;79.03;99878.25;5010242;28;20065;-79
2024/04/03 10:32:54;;;;;;;2.83;1.80;;;;;;;13.08;76.71;99883.41;5008937;28;20115;-80
2024/04/03 10:35:24;;;;;;;3.58;1.85;;;;;;;13.00;77.46;99879.94;5017556;28;20057;-81
2024/04/03 10:37:51;;;;;;;1.33;1.23;;;;;;;13.11;76.59;99874.25;5010623;28;20049;-81
2024/04/03 10:40:17;;;;;;;2.88;1.60;;;;;;;13.17;76.75;99876.25;5017434;28;20077;-80
2024/04/03 10:42:44;;;;;;;1.63;1.50;;;;;;;12.90;75.38;99875.63;5016196;28;20053;-79
2024/04/03 10:45:09;;;;;;;2.55;1.30;;;;;;;12.76;75.98;99878.13;5017572;28;20053;-81
2024/04/03 10:47:36;;;;;;;2.55;1.45;;;;;;;12.80;76.33;99880.28;5019172;28;20368;-82
2024/04/03 10:50:04;;;;;;;2.30;1.52;;;;;;;12.62;77.13;99882.28;5021552;28;20133;-83
2024/04/03 10:52:33;;;;;;;1.85;1.50;;;;;;;12.54;78.05;99879.59;5028328;28;20046;-81
2024/04/03 10:54:59;;;;;;;3.00;2.13;;;;;;;12.41;77.73;99874.78;5019067;28;20041;-80
2024/04/03 10:57:27;;;;;;;2.85;1.33;;;;;;;12.40;78.50;99878.44;5026198;28;20076;-83
2024/04/03 10:59:57;;;;;;;1.02;1.02;;;;;;;12.27;76.60;99875.44;5022634;28;20055;-84
2024/04/03 11:02:24;;;;;;;1.90;1.25;;;;;;;12.41;77.73;99877.44;5018837;28;20046;-81
2024/04/03 11:04:50;;;;;;;1.33;1.20;;;;;;;12.49;77.20;99872.13;5021732;28;20065;-78
2024/04/03 11:07:18;;;;;;;1.90;1.20;;;;;;;12.58;76.95;99881.75;5023252;28;20061;-81
2024/04/03 11:09:43;;;;;;;1.95;1.20;;;;;;;12.52;76.36;99882.44;5026561;28;20054;-80
2024/04/03 11:12:12;;;;;;;1.50;0.90;;;;;;;12.44;76.58;99885.06;5025668;28;20082;-82
2024/04/03 11:14:38;;;;;;;1.23;1.10;;;;;;;12.53;75.88;99878.78;5029817;28;20118;-80
2024/04/03 11:17:07;;;;;;;2.20;1.20;;;;;;;12.57;76.44;99882.75;5029880;28;20060;-82
2024/04/03 11:19:34;;;;;;;1.98;0.90;;;;;;;12.74;75.97;99888.09;5030518;28;20064;-79
2024/04/03 11:22:00;;;;;;;1.52;1.20;;;;;;;12.99;75.56;99884.44;5012556;28;20146;-83
2024/04/03 11:24:27;;;;;;;1.38;1.02;;;;;;;12.97;75.46;99886.41;5017330;28;20050;-82
2024/04/03 11:26:54;;;;;;;1.38;1.27;;;;;;;12.95;76.06;99884.91;5020374;28;20080;-80
2024/04/03 11:29:28;;;;;;;2.92;1.30;;;;;;;12.85;75.82;99882.41;5019699;28;20152;-79
2024/04/03 11:31:55;;;;;;;2.83;1.10;;;;;;;12.64;77.43;99888.25;5004163;28;20073;-80
2024/04/03 11:34:20;;;;;;;1.20;0.75;;;;;;;12.67;78.75;99884.44;5019727;28;20529;-79
2024/04/03 11:36:47;;;;;;;2.50;1.00;;;;;;;12.82;78.15;99893.41;5019592;28;20093;-82